sensor_id;sensor_type;location;lat;lon;timestamp;P1;durP1;ratioP1;P2;durP2;ratioP2
56927;SDS011;60850;52.502;13.426;2024-02-14T00:00:30;13.88;;;6.07;;
56927;SDS011;60850;52.502;13.426;2024-02-14T00:03:17;15.73;;;6.55;;
56927;SDS011;60850;52.502;13.426;2024-02-14T00:05:46;14.30;;;6.60;;
56927;SDS011;60850;52.502;13.426;2024-02-14T00:08:13;12.70;;;7.05;;
56927;SDS011;60850;52.502;13.426;2024-02-14T00:10:40;13.02;;;6.20;;
56927;SDS011;60850;52.502;13.426;2024-02-14T00:13:10;14.48;;;6.97;;
56927;SDS011;60850;52.502;13.426;2024-02-14T00:15:38;14.25;;;7.38;;
56927;SDS011;60850;52.502;13.426;2024-02-14T00:18:07;12.45;;;6.38;;
56927;SDS011;60850;52.502;13.426;2024-02-14T00:20:34;13.07;;;6.50;;
56927;SDS011;60850;52.502;13.426;2024-02-14T00:23:01;13.30;;;6.47;;
56927;SDS011;60850;52.502;13.426;2024-02-14T00:25:28;14.27;;;6.35;;
56927;SDS011;60850;52.502;13.426;2024-02-14T00:27:56;14.00;;;6.35;;
56927;SDS011;60850;52.502;13.426;2024-02-14T00:30:26;13.82;;;6.50;;
56927;SDS011;60850;52.502;13.426;2024-02-14T00:32:54;11.48;;;6.57;;
56927;SDS011;60850;52.502;13.426;2024-02-14T00:35:21;14.07;;;6.75;;
56927;SDS011;60850;52.502;13.426;2024-02-14T00:37:48;14.13;;;6.60;;
56927;SDS011;60850;52.502;13.426;2024-02-14T00:40:16;20.17;;;6.85;;
56927;SDS011;60850;52.502;13.426;2024-02-14T00:42:43;12.75;;;6.55;;
56927;SDS011;60850;52.502;13.426;2024-02-14T00:45:11;13.52;;;6.45;;
56927;SDS011;60850;52.502;13.426;2024-02-14T00:47:39;11.60;;;7.03;;
56927;SDS011;60850;52.502;13.426;2024-02-14T00:50:08;15.32;;;7.60;;
56927;SDS011;60850;52.502;13.426;2024-02-14T00:52:35;12.40;;;6.70;;
56927;SDS011;60850;52.502;13.426;2024-02-14T00:55:03;13.65;;;6.55;;
56927;SDS011;60850;52.502;13.426;2024-02-14T00:57:31;14.27;;;6.75;;
56927;SDS011;60850;52.502;13.426;2024-02-14T00:59:59;14.55;;;6.88;;
56927;SDS011;60850;52.502;13.426;2024-02-14T01:02:26;11.70;;;6.00;;
56927;SDS011;60850;52.502;13.426;2024-02-14T01:04:53;12.40;;;6.25;;
56927;SDS011;60850;52.502;13.426;2024-02-14T01:07:24;11.40;;;5.93;;
56927;SDS011;60850;52.502;13.426;2024-02-14T01:09:51;13.32;;;6.20;;
56927;SDS011;60850;52.502;13.426;2024-02-14T01:12:18;13.07;;;6.50;;
56927;SDS011;60850;52.502;13.426;2024-02-14T01:14:46;10.40;;;5.57;;
56927;SDS011;60850;52.502;13.426;2024-02-14T01:17:13;12.50;;;6.05;;
56927;SDS011;60850;52.502;13.426;2024-02-14T01:19:40;8.65;;;5.40;;
56927;SDS011;60850;52.502;13.426;2024-02-14T01:22:07;10.90;;;4.65;;
56927;SDS011;60850;52.502;13.426;2024-02-14T01:24:35;12.05;;;5.63;;
56927;SDS011;60850;52.502;13.426;2024-02-14T01:27:02;10.65;;;4.68;;
56927;SDS011;60850;52.502;13.426;2024-02-14T01:29:30;9.18;;;5.57;;
56927;SDS011;60850;52.502;13.426;2024-02-14T01:31:57;12.85;;;5.82;;
56927;SDS011;60850;52.502;13.426;2024-02-14T01:34:24;16.10;;;6.95;;
56927;SDS011;60850;52.502;13.426;2024-02-14T01:36:53;22.25;;;9.57;;
56927;SDS011;60850;52.502;13.426;2024-02-14T01:39:20;27.75;;;11.32;;
56927;SDS011;60850;52.502;13.426;2024-02-14T01:41:48;25.35;;;9.43;;
56927;SDS011;60850;52.502;13.426;2024-02-14T01:44:16;16.48;;;7.30;;
56927;SDS011;60850;52.502;13.426;2024-02-14T01:46:43;16.25;;;7.47;;
56927;SDS011;60850;52.502;13.426;2024-02-14T01:49:11;15.55;;;7.82;;
56927;SDS011;60850;52.502;13.426;2024-02-14T01:51:38;11.27;;;6.38;;
56927;SDS011;60850;52.502;13.426;2024-02-14T01:54:10;15.70;;;6.05;;
56927;SDS011;60850;52.502;13.426;2024-02-14T01:56:38;12.02;;;5.85;;
56927;SDS011;60850;52.502;13.426;2024-02-14T01:59:07;13.30;;;5.57;;
56927;SDS011;60850;52.502;13.426;2024-02-14T02:01:35;9.90;;;5.10;;
56927;SDS011;60850;52.502;13.426;2024-02-14T02:04:02;12.75;;;6.35;;
56927;SDS011;60850;52.502;13.426;2024-02-14T02:06:30;12.93;;;5.63;;
56927;SDS011;60850;52.502;13.426;2024-02-14T02:08:57;10.23;;;5.70;;
56927;SDS011;60850;52.502;13.426;2024-02-14T02:11:24;11.25;;;5.55;;
56927;SDS011;60850;52.502;13.426;2024-02-14T02:13:52;10.38;;;5.07;;
56927;SDS011;60850;52.502;13.426;2024-02-14T02:16:20;10.00;;;5.60;;
56927;SDS011;60850;52.502;13.426;2024-02-14T02:18:47;11.02;;;5.57;;
56927;SDS011;60850;52.502;13.426;2024-02-14T02:21:15;12.27;;;5.95;;
56927;SDS011;60850;52.502;13.426;2024-02-14T02:23:47;8.90;;;5.18;;
56927;SDS011;60850;52.502;13.426;2024-02-14T02:26:14;11.68;;;5.15;;
56927;SDS011;60850;52.502;13.426;2024-02-14T02:28:41;11.27;;;5.50;;
56927;SDS011;60850;52.502;13.426;2024-02-14T02:31:08;12.55;;;4.90;;
56927;SDS011;60850;52.502;13.426;2024-02-14T02:33:35;8.43;;;5.18;;
56927;SDS011;60850;52.502;13.426;2024-02-14T02:36:02;8.20;;;4.45;;
56927;SDS011;60850;52.502;13.426;2024-02-14T02:38:31;9.90;;;4.90;;
56927;SDS011;60850;52.502;13.426;2024-02-14T02:41:00;9.90;;;5.18;;
56927;SDS011;60850;52.502;13.426;2024-02-14T02:43:27;7.55;;;5.07;;
56927;SDS011;60850;52.502;13.426;2024-02-14T02:45:54;8.88;;;5.15;;
56927;SDS011;60850;52.502;13.426;2024-02-14T02:48:22;12.02;;;5.07;;
56927;SDS011;60850;52.502;13.426;2024-02-14T02:50:49;8.07;;;4.60;;
56927;SDS011;60850;52.502;13.426;2024-02-14T02:53:17;8.77;;;4.82;;
56927;SDS011;60850;52.502;13.426;2024-02-14T02:55:44;9.77;;;4.53;;
56927;SDS011;60850;52.502;13.426;2024-02-14T02:58:12;8.85;;;4.55;;
56927;SDS011;60850;52.502;13.426;2024-02-14T03:00:47;9.98;;;4.13;;
56927;SDS011;60850;52.502;13.426;2024-02-14T03:03:15;7.97;;;4.57;;
56927;SDS011;60850;52.502;13.426;2024-02-14T03:05:42;8.57;;;4.97;;
56927;SDS011;60850;52.502;13.426;2024-02-14T03:08:11;9.57;;;4.93;;
56927;SDS011;60850;52.502;13.426;2024-02-14T03:10:40;9.27;;;4.82;;
56927;SDS011;60850;52.502;13.426;2024-02-14T03:13:07;11.25;;;5.57;;
56927;SDS011;60850;52.502;13.426;2024-02-14T03:15:38;8.07;;;4.43;;
56927;SDS011;60850;52.502;13.426;2024-02-14T03:18:05;10.05;;;4.63;;
56927;SDS011;60850;52.502;13.426;2024-02-14T03:20:35;8.65;;;4.70;;
56927;SDS011;60850;52.502;13.426;2024-02-14T03:23:02;8.07;;;4.50;;
56927;SDS011;60850;52.502;13.426;2024-02-14T03:25:30;7.25;;;3.90;;
56927;SDS011;60850;52.502;13.426;2024-02-14T03:27:57;7.85;;;4.15;;
56927;SDS011;60850;52.502;13.426;2024-02-14T03:30:24;10.48;;;4.47;;
56927;SDS011;60850;52.502;13.426;2024-02-14T03:32:52;8.90;;;5.15;;
56927;SDS011;60850;52.502;13.426;2024-02-14T03:35:21;10.75;;;4.95;;
56927;SDS011;60850;52.502;13.426;2024-02-14T03:37:48;10.82;;;4.47;;
56927;SDS011;60850;52.502;13.426;2024-02-14T03:40:17;10.90;;;5.28;;
56927;SDS011;60850;52.502;13.426;2024-02-14T03:42:46;9.20;;;5.60;;
56927;SDS011;60850;52.502;13.426;2024-02-14T03:45:12;8.90;;;4.65;;
56927;SDS011;60850;52.502;13.426;2024-02-14T03:47:40;10.00;;;4.50;;
56927;SDS011;60850;52.502;13.426;2024-02-14T03:50:08;6.97;;;4.10;;
56927;SDS011;60850;52.502;13.426;2024-02-14T03:52:36;6.95;;;4.25;;
56927;SDS011;60850;52.502;13.426;2024-02-14T03:55:03;7.68;;;4.65;;
56927;SDS011;60850;52.502;13.426;2024-02-14T03:57:31;7.05;;;4.65;;
56927;SDS011;60850;52.502;13.426;2024-02-14T04:00:00;6.63;;;4.15;;
56927;SDS011;60850;52.502;13.426;2024-02-14T04:02:28;7.45;;;4.70;;
56927;SDS011;60850;52.502;13.426;2024-02-14T04:04:55;13.35;;;5.50;;
56927;SDS011;60850;52.502;13.426;2024-02-14T04:07:23;9.50;;;4.90;;
56927;SDS011;60850;52.502;13.426;2024-02-14T04:09:50;8.30;;;4.85;;
56927;SDS011;60850;52.502;13.426;2024-02-14T04:12:17;10.77;;;5.68;;
56927;SDS011;60850;52.502;13.426;2024-02-14T04:14:44;9.10;;;5.07;;
56927;SDS011;60850;52.502;13.426;2024-02-14T04:17:12;10.13;;;5.38;;
56927;SDS011;60850;52.502;13.426;2024-02-14T04:19:39;9.85;;;4.90;;
56927;SDS011;60850;52.502;13.426;2024-02-14T04:22:07;8.57;;;5.20;;
56927;SDS011;60850;52.502;13.426;2024-02-14T04:24:35;7.57;;;4.60;;
56927;SDS011;60850;52.502;13.426;2024-02-14T04:27:03;8.25;;;4.97;;
56927;SDS011;60850;52.502;13.426;2024-02-14T04:29:30;10.05;;;5.50;;
56927;SDS011;60850;52.502;13.426;2024-02-14T04:31:58;12.85;;;5.63;;
56927;SDS011;60850;52.502;13.426;2024-02-14T04:34:25;9.32;;;5.05;;
56927;SDS011;60850;52.502;13.426;2024-02-14T04:36:53;7.68;;;4.45;;
56927;SDS011;60850;52.502;13.426;2024-02-14T04:39:20;9.85;;;5.93;;
56927;SDS011;60850;52.502;13.426;2024-02-14T04:41:49;10.05;;;5.53;;
56927;SDS011;60850;52.502;13.426;2024-02-14T04:44:15;13.38;;;5.78;;
56927;SDS011;60850;52.502;13.426;2024-02-14T04:46:43;9.27;;;5.65;;
56927;SDS011;60850;52.502;13.426;2024-02-14T04:49:10;9.10;;;5.28;;
56927;SDS011;60850;52.502;13.426;2024-02-14T04:51:37;12.25;;;5.18;;
56927;SDS011;60850;52.502;13.426;2024-02-14T04:54:04;9.25;;;4.63;;
56927;SDS011;60850;52.502;13.426;2024-02-14T04:56:31;9.07;;;5.35;;
56927;SDS011;60850;52.502;13.426;2024-02-14T04:58:59;10.48;;;5.45;;
56927;SDS011;60850;52.502;13.426;2024-02-14T05:01:27;12.18;;;5.32;;
56927;SDS011;60850;52.502;13.426;2024-02-14T05:03:54;8.38;;;5.20;;
56927;SDS011;60850;52.502;13.426;2024-02-14T05:06:21;9.88;;;5.25;;
56927;SDS011;60850;52.502;13.426;2024-02-14T05:08:48;11.95;;;5.22;;
56927;SDS011;60850;52.502;13.426;2024-02-14T05:11:17;9.52;;;5.68;;
56927;SDS011;60850;52.502;13.426;2024-02-14T05:13:44;10.07;;;6.32;;
56927;SDS011;60850;52.502;13.426;2024-02-14T05:16:13;14.85;;;6.40;;
56927;SDS011;60850;52.502;13.426;2024-02-14T05:18:44;12.77;;;5.47;;
56927;SDS011;60850;52.502;13.426;2024-02-14T05:21:14;10.90;;;5.68;;
56927;SDS011;60850;52.502;13.426;2024-02-14T05:23:42;9.13;;;5.43;;
56927;SDS011;60850;52.502;13.426;2024-02-14T05:26:09;12.52;;;5.18;;
56927;SDS011;60850;52.502;13.426;2024-02-14T05:28:36;13.40;;;5.45;;
56927;SDS011;60850;52.502;13.426;2024-02-14T05:31:03;9.02;;;5.60;;
56927;SDS011;60850;52.502;13.426;2024-02-14T05:33:33;11.70;;;6.30;;
56927;SDS011;60850;52.502;13.426;2024-02-14T05:36:00;9.77;;;5.00;;
56927;SDS011;60850;52.502;13.426;2024-02-14T05:38:27;11.70;;;5.72;;
56927;SDS011;60850;52.502;13.426;2024-02-14T05:40:55;12.32;;;5.72;;
56927;SDS011;60850;52.502;13.426;2024-02-14T05:43:22;9.30;;;5.05;;
56927;SDS011;60850;52.502;13.426;2024-02-14T05:45:49;11.75;;;6.00;;
56927;SDS011;60850;52.502;13.426;2024-02-14T05:48:16;12.80;;;5.88;;
56927;SDS011;60850;52.502;13.426;2024-02-14T05:50:45;10.70;;;5.55;;
56927;SDS011;60850;52.502;13.426;2024-02-14T05:53:12;12.00;;;6.30;;
56927;SDS011;60850;52.502;13.426;2024-02-14T05:55:39;11.50;;;6.47;;
56927;SDS011;60850;52.502;13.426;2024-02-14T05:58:06;12.98;;;6.43;;
56927;SDS011;60850;52.502;13.426;2024-02-14T06:00:33;13.35;;;6.97;;
56927;SDS011;60850;52.502;13.426;2024-02-14T06:03:00;10.93;;;6.35;;
56927;SDS011;60850;52.502;13.426;2024-02-14T06:05:27;12.65;;;6.03;;
56927;SDS011;60850;52.502;13.426;2024-02-14T06:07:56;11.07;;;5.43;;
56927;SDS011;60850;52.502;13.426;2024-02-14T06:10:23;10.35;;;5.90;;
56927;SDS011;60850;52.502;13.426;2024-02-14T06:12:51;9.75;;;5.03;;
56927;SDS011;60850;52.502;13.426;2024-02-14T06:15:18;13.60;;;5.95;;
56927;SDS011;60850;52.502;13.426;2024-02-14T06:17:45;9.98;;;5.60;;
56927;SDS011;60850;52.502;13.426;2024-02-14T06:20:12;11.52;;;5.40;;
56927;SDS011;60850;52.502;13.426;2024-02-14T06:22:39;15.50;;;5.40;;
56927;SDS011;60850;52.502;13.426;2024-02-14T06:25:08;10.93;;;5.70;;
56927;SDS011;60850;52.502;13.426;2024-02-14T06:27:35;10.52;;;5.25;;
56927;SDS011;60850;52.502;13.426;2024-02-14T06:30:03;14.10;;;5.55;;
56927;SDS011;60850;52.502;13.426;2024-02-14T06:32:30;12.38;;;5.75;;
56927;SDS011;60850;52.502;13.426;2024-02-14T06:34:57;10.20;;;5.28;;
56927;SDS011;60850;52.502;13.426;2024-02-14T06:37:24;11.30;;;5.63;;
56927;SDS011;60850;52.502;13.426;2024-02-14T06:39:51;8.75;;;5.65;;
56927;SDS011;60850;52.502;13.426;2024-02-14T06:42:19;8.00;;;4.95;;
56927;SDS011;60850;52.502;13.426;2024-02-14T06:44:46;7.55;;;5.22;;
56927;SDS011;60850;52.502;13.426;2024-02-14T06:47:15;8.63;;;5.05;;
56927;SDS011;60850;52.502;13.426;2024-02-14T06:49:42;9.98;;;5.10;;
56927;SDS011;60850;52.502;13.426;2024-02-14T06:52:09;12.63;;;5.18;;
56927;SDS011;60850;52.502;13.426;2024-02-14T06:54:36;10.93;;;5.35;;
56927;SDS011;60850;52.502;13.426;2024-02-14T06:57:03;9.07;;;5.35;;
56927;SDS011;60850;52.502;13.426;2024-02-14T06:59:32;10.02;;;5.88;;
56927;SDS011;60850;52.502;13.426;2024-02-14T07:01:59;10.40;;;4.97;;
56927;SDS011;60850;52.502;13.426;2024-02-14T07:04:27;8.90;;;5.13;;
56927;SDS011;60850;52.502;13.426;2024-02-14T07:06:53;9.30;;;5.32;;
56927;SDS011;60850;52.502;13.426;2024-02-14T07:09:21;12.70;;;5.07;;
56927;SDS011;60850;52.502;13.426;2024-02-14T07:11:48;10.93;;;5.32;;
56927;SDS011;60850;52.502;13.426;2024-02-14T07:14:16;10.68;;;4.82;;
56927;SDS011;60850;52.502;13.426;2024-02-14T07:16:44;12.75;;;4.82;;
56927;SDS011;60850;52.502;13.426;2024-02-14T07:19:11;9.30;;;4.63;;
56927;SDS011;60850;52.502;13.426;2024-02-14T07:21:38;11.73;;;5.50;;
56927;SDS011;60850;52.502;13.426;2024-02-14T07:24:05;10.85;;;4.85;;
56927;SDS011;60850;52.502;13.426;2024-02-14T07:26:35;12.85;;;5.40;;
56927;SDS011;60850;52.502;13.426;2024-02-14T07:29:02;8.45;;;4.78;;
56927;SDS011;60850;52.502;13.426;2024-02-14T07:31:29;7.90;;;4.25;;
56927;SDS011;60850;52.502;13.426;2024-02-14T07:34:00;8.98;;;4.95;;
56927;SDS011;60850;52.502;13.426;2024-02-14T07:36:28;7.57;;;4.65;;
56927;SDS011;60850;52.502;13.426;2024-02-14T07:38:55;8.20;;;5.18;;
56927;SDS011;60850;52.502;13.426;2024-02-14T07:41:24;10.15;;;5.40;;
56927;SDS011;60850;52.502;13.426;2024-02-14T07:43:52;8.68;;;5.13;;
56927;SDS011;60850;52.502;13.426;2024-02-14T07:46:19;11.00;;;4.35;;
56927;SDS011;60850;52.502;13.426;2024-02-14T07:48:47;8.73;;;5.10;;
56927;SDS011;60850;52.502;13.426;2024-02-14T07:51:16;10.55;;;4.45;;
56927;SDS011;60850;52.502;13.426;2024-02-14T07:53:44;8.95;;;4.47;;
56927;SDS011;60850;52.502;13.426;2024-02-14T07:56:11;10.75;;;4.63;;
56927;SDS011;60850;52.502;13.426;2024-02-14T07:58:38;10.00;;;4.40;;
56927;SDS011;60850;52.502;13.426;2024-02-14T08:01:05;8.93;;;4.43;;
56927;SDS011;60850;52.502;13.426;2024-02-14T08:03:35;12.63;;;5.38;;
56927;SDS011;60850;52.502;13.426;2024-02-14T08:06:02;9.98;;;5.05;;
56927;SDS011;60850;52.502;13.426;2024-02-14T08:08:31;14.32;;;4.95;;
56927;SDS011;60850;52.502;13.426;2024-02-14T08:10:58;11.07;;;4.78;;
56927;SDS011;60850;52.502;13.426;2024-02-14T08:13:25;12.65;;;4.47;;
56927;SDS011;60850;52.502;13.426;2024-02-14T08:15:52;16.42;;;5.57;;
56927;SDS011;60850;52.502;13.426;2024-02-14T08:18:19;11.20;;;5.15;;
56927;SDS011;60850;52.502;13.426;2024-02-14T08:20:46;7.72;;;4.40;;
56927;SDS011;60850;52.502;13.426;2024-02-14T08:23:14;7.05;;;3.78;;
56927;SDS011;60850;52.502;13.426;2024-02-14T08:25:42;10.00;;;4.88;;
56927;SDS011;60850;52.502;13.426;2024-02-14T08:28:09;9.75;;;4.47;;
56927;SDS011;60850;52.502;13.426;2024-02-14T08:30:36;6.93;;;4.28;;
56927;SDS011;60850;52.502;13.426;2024-02-14T08:33:03;9.25;;;5.47;;
56927;SDS011;60850;52.502;13.426;2024-02-14T08:35:30;10.10;;;4.25;;
56927;SDS011;60850;52.502;13.426;2024-02-14T08:37:58;8.70;;;4.28;;
56927;SDS011;60850;52.502;13.426;2024-02-14T08:40:25;9.50;;;4.95;;
56927;SDS011;60850;52.502;13.426;2024-02-14T08:42:54;8.63;;;5.05;;
56927;SDS011;60850;52.502;13.426;2024-02-14T08:45:21;9.70;;;4.70;;
56927;SDS011;60850;52.502;13.426;2024-02-14T08:47:48;8.25;;;4.90;;
56927;SDS011;60850;52.502;13.426;2024-02-14T08:50:15;13.55;;;5.20;;
56927;SDS011;60850;52.502;13.426;2024-02-14T08:52:42;14.20;;;6.65;;
56927;SDS011;60850;52.502;13.426;2024-02-14T08:55:09;13.95;;;6.28;;
56927;SDS011;60850;52.502;13.426;2024-02-14T08:57:42;13.27;;;5.93;;
56927;SDS011;60850;52.502;13.426;2024-02-14T09:00:12;15.77;;;5.93;;
56927;SDS011;60850;52.502;13.426;2024-02-14T09:02:40;16.30;;;7.90;;
56927;SDS011;60850;52.502;13.426;2024-02-14T09:05:07;20.10;;;8.68;;
56927;SDS011;60850;52.502;13.426;2024-02-14T09:07:35;27.55;;;9.45;;
56927;SDS011;60850;52.502;13.426;2024-02-14T09:10:02;18.75;;;8.20;;
56927;SDS011;60850;52.502;13.426;2024-02-14T09:12:31;22.27;;;9.65;;
56927;SDS011;60850;52.502;13.426;2024-02-14T09:14:58;23.05;;;9.45;;
56927;SDS011;60850;52.502;13.426;2024-02-14T09:17:27;16.88;;;8.55;;
56927;SDS011;60850;52.502;13.426;2024-02-14T09:19:54;21.23;;;8.15;;
56927;SDS011;60850;52.502;13.426;2024-02-14T09:22:34;14.70;;;6.75;;
56927;SDS011;60850;52.502;13.426;2024-02-14T09:25:01;13.43;;;5.82;;
56927;SDS011;60850;52.502;13.426;2024-02-14T09:27:29;11.48;;;6.40;;
56927;SDS011;60850;52.502;13.426;2024-02-14T09:29:56;10.82;;;5.40;;
56927;SDS011;60850;52.502;13.426;2024-02-14T09:32:27;13.90;;;4.72;;
56927;SDS011;60850;52.502;13.426;2024-02-14T09:34:54;9.98;;;4.25;;
56927;SDS011;60850;52.502;13.426;2024-02-14T09:37:22;14.43;;;6.30;;
56927;SDS011;60850;52.502;13.426;2024-02-14T09:39:49;9.82;;;4.55;;
56927;SDS011;60850;52.502;13.426;2024-02-14T09:42:16;6.10;;;3.85;;
56927;SDS011;60850;52.502;13.426;2024-02-14T09:47:19;8.20;;;3.10;;
56927;SDS011;60850;52.502;13.426;2024-02-14T09:49:48;8.50;;;3.05;;
56927;SDS011;60850;52.502;13.426;2024-02-14T09:52:18;5.57;;;2.92;;
56927;SDS011;60850;52.502;13.426;2024-02-14T09:54:47;5.28;;;2.42;;
56927;SDS011;60850;52.502;13.426;2024-02-14T09:57:15;7.07;;;2.72;;
56927;SDS011;60850;52.502;13.426;2024-02-14T09:59:43;6.43;;;2.35;;
56927;SDS011;60850;52.502;13.426;2024-02-14T10:02:13;5.30;;;2.72;;
56927;SDS011;60850;52.502;13.426;2024-02-14T10:04:41;5.65;;;2.90;;
56927;SDS011;60850;52.502;13.426;2024-02-14T10:07:10;6.63;;;3.10;;
56927;SDS011;60850;52.502;13.426;2024-02-14T10:09:40;5.00;;;3.15;;
56927;SDS011;60850;52.502;13.426;2024-02-14T10:12:07;7.47;;;3.40;;
56927;SDS011;60850;52.502;13.426;2024-02-14T10:14:35;5.32;;;2.50;;
56927;SDS011;60850;52.502;13.426;2024-02-14T10:17:02;6.68;;;2.92;;
56927;SDS011;60850;52.502;13.426;2024-02-14T10:19:30;4.35;;;2.40;;
56927;SDS011;60850;52.502;13.426;2024-02-14T10:21:57;5.95;;;2.75;;
56927;SDS011;60850;52.502;13.426;2024-02-14T10:24:27;5.78;;;2.38;;
56927;SDS011;60850;52.502;13.426;2024-02-14T10:26:54;8.68;;;2.55;;
56927;SDS011;60850;52.502;13.426;2024-02-14T10:29:22;5.97;;;2.80;;
56927;SDS011;60850;52.502;13.426;2024-02-14T10:31:50;3.63;;;2.30;;
56927;SDS011;60850;52.502;13.426;2024-02-14T10:34:17;7.97;;;3.00;;
56927;SDS011;60850;52.502;13.426;2024-02-14T10:36:45;6.90;;;3.08;;
56927;SDS011;60850;52.502;13.426;2024-02-14T10:39:14;5.88;;;3.00;;
56927;SDS011;60850;52.502;13.426;2024-02-14T10:41:47;3.92;;;2.67;;
56927;SDS011;60850;52.502;13.426;2024-02-14T10:44:15;5.10;;;2.70;;
56927;SDS011;60850;52.502;13.426;2024-02-14T10:46:42;8.73;;;3.08;;
56927;SDS011;60850;52.502;13.426;2024-02-14T10:49:15;7.32;;;3.08;;
56927;SDS011;60850;52.502;13.426;2024-02-14T10:51:45;5.93;;;3.40;;
56927;SDS011;60850;52.502;13.426;2024-02-14T10:54:14;6.95;;;3.15;;
56927;SDS011;60850;52.502;13.426;2024-02-14T10:56:45;5.50;;;2.88;;
56927;SDS011;60850;52.502;13.426;2024-02-14T10:59:19;7.45;;;2.88;;
56927;SDS011;60850;52.502;13.426;2024-02-14T11:01:48;5.45;;;2.90;;
56927;SDS011;60850;52.502;13.426;2024-02-14T11:04:15;8.02;;;2.80;;
56927;SDS011;60850;52.502;13.426;2024-02-14T11:06:46;6.68;;;3.30;;
56927;SDS011;60850;52.502;13.426;2024-02-14T11:09:14;6.63;;;3.05;;
56927;SDS011;60850;52.502;13.426;2024-02-14T11:11:41;4.35;;;2.42;;
56927;SDS011;60850;52.502;13.426;2024-02-14T11:14:12;5.20;;;3.30;;
56927;SDS011;60850;52.502;13.426;2024-02-14T11:16:44;9.50;;;3.72;;
56927;SDS011;60850;52.502;13.426;2024-02-14T11:19:12;5.72;;;3.47;;
56927;SDS011;60850;52.502;13.426;2024-02-14T11:21:42;7.22;;;3.05;;
56927;SDS011;60850;52.502;13.426;2024-02-14T11:24:10;6.95;;;2.90;;
56927;SDS011;60850;52.502;13.426;2024-02-14T11:26:40;7.57;;;2.67;;
56927;SDS011;60850;52.502;13.426;2024-02-14T11:29:15;4.78;;;2.67;;
56927;SDS011;60850;52.502;13.426;2024-02-14T11:31:44;6.53;;;2.55;;
56927;SDS011;60850;52.502;13.426;2024-02-14T11:34:11;6.00;;;2.83;;
56927;SDS011;60850;52.502;13.426;2024-02-14T11:36:42;7.82;;;2.80;;
56927;SDS011;60850;52.502;13.426;2024-02-14T11:39:09;8.13;;;3.17;;
56927;SDS011;60850;52.502;13.426;2024-02-14T11:41:37;4.63;;;3.10;;
56927;SDS011;60850;52.502;13.426;2024-02-14T11:44:07;5.57;;;2.70;;
56927;SDS011;60850;52.502;13.426;2024-02-14T11:46:36;6.15;;;3.28;;
56927;SDS011;60850;52.502;13.426;2024-02-14T11:49:04;5.80;;;3.30;;
56927;SDS011;60850;52.502;13.426;2024-02-14T11:51:33;7.43;;;2.95;;
56927;SDS011;60850;52.502;13.426;2024-02-14T11:54:04;6.65;;;2.80;;
56927;SDS011;60850;52.502;13.426;2024-02-14T11:56:36;7.25;;;3.03;;
56927;SDS011;60850;52.502;13.426;2024-02-14T11:59:04;7.53;;;3.08;;
56927;SDS011;60850;52.502;13.426;2024-02-14T12:01:33;5.70;;;3.10;;
56927;SDS011;60850;52.502;13.426;2024-02-14T12:04:04;8.13;;;2.83;;
56927;SDS011;60850;52.502;13.426;2024-02-14T12:06:34;6.95;;;3.03;;
56927;SDS011;60850;52.502;13.426;2024-02-14T12:09:02;4.90;;;2.90;;
56927;SDS011;60850;52.502;13.426;2024-02-14T12:11:31;8.60;;;3.80;;
56927;SDS011;60850;52.502;13.426;2024-02-14T12:14:00;6.43;;;3.30;;
56927;SDS011;60850;52.502;13.426;2024-02-14T12:16:28;7.53;;;3.63;;
56927;SDS011;60850;52.502;13.426;2024-02-14T12:19:04;7.68;;;3.13;;
56927;SDS011;60850;52.502;13.426;2024-02-14T12:21:36;7.97;;;3.35;;
56927;SDS011;60850;52.502;13.426;2024-02-14T12:24:04;5.90;;;3.50;;
56927;SDS011;60850;52.502;13.426;2024-02-14T12:26:33;8.52;;;4.07;;
56927;SDS011;60850;52.502;13.426;2024-02-14T12:29:02;7.13;;;3.90;;
56927;SDS011;60850;52.502;13.426;2024-02-14T12:31:30;7.07;;;3.35;;
56927;SDS011;60850;52.502;13.426;2024-02-14T12:33:57;5.85;;;3.13;;
56927;SDS011;60850;52.502;13.426;2024-02-14T12:36:26;7.68;;;3.97;;
56927;SDS011;60850;52.502;13.426;2024-02-14T12:38:54;8.30;;;3.67;;
56927;SDS011;60850;52.502;13.426;2024-02-14T12:41:21;4.97;;;2.88;;
56927;SDS011;60850;52.502;13.426;2024-02-14T12:43:48;10.27;;;3.90;;
56927;SDS011;60850;52.502;13.426;2024-02-14T12:46:16;9.15;;;3.75;;
56927;SDS011;60850;52.502;13.426;2024-02-14T12:48:43;6.45;;;3.35;;
56927;SDS011;60850;52.502;13.426;2024-02-14T12:51:10;6.03;;;3.40;;
56927;SDS011;60850;52.502;13.426;2024-02-14T12:53:39;5.55;;;3.83;;
56927;SDS011;60850;52.502;13.426;2024-02-14T12:56:07;8.38;;;4.10;;
56927;SDS011;60850;52.502;13.426;2024-02-14T12:58:34;7.95;;;3.42;;
56927;SDS011;60850;52.502;13.426;2024-02-14T13:01:02;4.88;;;3.20;;
56927;SDS011;60850;52.502;13.426;2024-02-14T13:03:31;5.13;;;3.00;;
56927;SDS011;60850;52.502;13.426;2024-02-14T13:06:00;5.70;;;3.60;;
56927;SDS011;60850;52.502;13.426;2024-02-14T13:08:27;4.05;;;2.90;;
56927;SDS011;60850;52.502;13.426;2024-02-14T13:10:56;6.97;;;3.55;;
56927;SDS011;60850;52.502;13.426;2024-02-14T13:13:23;4.95;;;3.20;;
56927;SDS011;60850;52.502;13.426;2024-02-14T13:15:49;9.05;;;3.72;;
56927;SDS011;60850;52.502;13.426;2024-02-14T13:18:16;12.32;;;3.90;;
56927;SDS011;60850;52.502;13.426;2024-02-14T13:20:44;6.65;;;3.38;;
56927;SDS011;60850;52.502;13.426;2024-02-14T13:23:11;7.57;;;3.00;;
56927;SDS011;60850;52.502;13.426;2024-02-14T13:25:37;7.72;;;3.90;;
56927;SDS011;60850;52.502;13.426;2024-02-14T13:28:05;9.30;;;3.92;;
56927;SDS011;60850;52.502;13.426;2024-02-14T13:30:33;7.72;;;3.47;;
56927;SDS011;60850;52.502;13.426;2024-02-14T13:33:00;5.95;;;3.50;;
56927;SDS011;60850;52.502;13.426;2024-02-14T13:35:28;6.65;;;3.17;;
56927;SDS011;60850;52.502;13.426;2024-02-14T13:37:56;4.22;;;3.30;;
56927;SDS011;60850;52.502;13.426;2024-02-14T13:40:24;7.20;;;3.78;;
56927;SDS011;60850;52.502;13.426;2024-02-14T13:42:51;7.45;;;3.47;;
56927;SDS011;60850;52.502;13.426;2024-02-14T13:45:19;7.13;;;3.67;;
56927;SDS011;60850;52.502;13.426;2024-02-14T13:47:49;6.10;;;3.72;;
56927;SDS011;60850;52.502;13.426;2024-02-14T13:50:16;9.63;;;4.10;;
56927;SDS011;60850;52.502;13.426;2024-02-14T13:52:43;8.02;;;4.03;;
56927;SDS011;60850;52.502;13.426;2024-02-14T13:55:10;9.05;;;4.05;;
56927;SDS011;60850;52.502;13.426;2024-02-14T13:57:37;8.38;;;4.22;;
56927;SDS011;60850;52.502;13.426;2024-02-14T14:00:05;7.20;;;3.78;;
56927;SDS011;60850;52.502;13.426;2024-02-14T14:02:37;6.43;;;3.38;;
56927;SDS011;60850;52.502;13.426;2024-02-14T14:05:07;8.27;;;3.85;;
56927;SDS011;60850;52.502;13.426;2024-02-14T14:07:35;7.97;;;3.65;;
56927;SDS011;60850;52.502;13.426;2024-02-14T14:10:03;10.15;;;4.50;;
56927;SDS011;60850;52.502;13.426;2024-02-14T14:12:30;7.85;;;4.55;;
56927;SDS011;60850;52.502;13.426;2024-02-14T14:14:58;8.10;;;4.20;;
56927;SDS011;60850;52.502;13.426;2024-02-14T14:17:25;8.75;;;3.90;;
56927;SDS011;60850;52.502;13.426;2024-02-14T14:19:54;7.07;;;4.13;;
56927;SDS011;60850;52.502;13.426;2024-02-14T14:22:21;7.18;;;3.88;;
56927;SDS011;60850;52.502;13.426;2024-02-14T14:24:48;8.07;;;4.10;;
56927;SDS011;60850;52.502;13.426;2024-02-14T14:27:16;7.25;;;4.28;;
56927;SDS011;60850;52.502;13.426;2024-02-14T14:29:47;7.65;;;4.15;;
56927;SDS011;60850;52.502;13.426;2024-02-14T14:32:14;6.43;;;3.95;;
56927;SDS011;60850;52.502;13.426;2024-02-14T14:34:42;7.85;;;4.03;;